KBJJ/BJJ METAR and TAF weather

Enter ICAO airport designator
Station Type Date Time Source
KBJJ METAR 2021/05/12 22:56 UTC NOAA

KBJJ 122256Z AUTO 04008KT 10SM CLR 14/M01 A3033 RMK AO2 SLP277 T01391011


Station Type Date Time Source
KBJJ Decoded METAR 2021/05/12 22:56 UTC NOAA

WOOSTER WAYNE COUNTY AIRPORT, OH, United States (KBJJ) 40-52N 81-53W 343M
May 12, 2021 - 06:56 PM EDT / 2021.05.12 2256 UTC
Wind: from the NE (040 degrees) at 9 MPH (8 KT):0
Visibility: 10 mile(s):0
Sky conditions: clear
Temperature: 57.0 F (13.9 C)
Dew Point: 30.0 F (-1.1 C)
Relative Humidity: 35%
Pressure (altimeter): 30.33 in. Hg (1027 hPa)
ob: KBJJ 122256Z AUTO 04008KT 10SM CLR 14/M01 A3033 RMK AO2 SLP277 T01391011
cycle: 23

Station Type Date Time Source
KBJJ TAF UTC NOAA

Error!

Example: see airport list